createdAt,value
2018-12-06T00:24:50.730Z,34.4
2018-12-06T00:25:41.048Z,34.4
2018-12-06T00:26:30.787Z,34.4
2018-12-06T00:27:21.150Z,34.4
2018-12-06T00:28:11.508Z,34.4
2018-12-06T00:29:01.507Z,34.4
2018-12-06T00:29:51.901Z,34.4
2018-12-06T00:30:41.672Z,34.4
2018-12-06T00:31:31.738Z,34.4
2018-12-06T00:32:21.459Z,34.3
2018-12-06T00:33:11.567Z,34.4
2018-12-06T00:34:02.119Z,34.4
2018-12-06T00:34:51.716Z,34.4
2018-12-06T00:35:41.159Z,34.3
2018-12-06T00:36:32.146Z,34.3
2018-12-06T00:37:21.276Z,34.3
2018-12-06T00:38:12.196Z,34.3
2018-12-06T00:39:02.156Z,34.3
2018-12-06T00:39:52.549Z,34.3
2018-12-06T00:40:42.148Z,34.3
2018-12-06T00:41:32.669Z,34.3
2018-12-06T00:42:22.174Z,34.3
2018-12-06T00:43:11.676Z,34.3
2018-12-06T00:44:02.572Z,34.3
2018-12-06T00:44:52.893Z,34.3
2018-12-06T00:45:42.640Z,34.3
2018-12-06T00:46:32.225Z,34.3
2018-12-06T00:47:22.758Z,34.3
2018-12-06T00:48:12.283Z,34.3
2018-12-06T00:49:03.238Z,34.3
2018-12-06T00:49:52.981Z,34.3
2018-12-06T00:50:42.798Z,34.3
2018-12-06T00:51:32.281Z,34.3
2018-12-06T00:52:23.120Z,34.3
2018-12-06T00:53:13.202Z,34.3
2018-12-06T00:54:02.975Z,34.3
2018-12-06T00:54:53.020Z,34.3
2018-12-06T00:55:43.395Z,34.3
2018-12-06T00:56:33.438Z,34.3
2018-12-06T00:57:22.927Z,34.3
2018-12-06T00:58:13.280Z,34.3
2018-12-06T00:59:03.128Z,34.3
2018-12-06T00:59:52.842Z,34.2
2018-12-06T01:00:43.689Z,34.2
2018-12-06T01:01:34.074Z,34.2
2018-12-06T01:02:23.877Z,34.2
2018-12-06T01:03:13.704Z,34.2
2018-12-06T01:04:04.299Z,34.2
2018-12-06T01:04:53.727Z,34.2
2018-12-06T01:05:44.344Z,34.2
2018-12-06T01:06:34.469Z,34.2
2018-12-06T01:07:24.265Z,34.2
2018-12-06T01:08:14.252Z,34.2
2018-12-06T01:09:04.370Z,34.2
2018-12-06T01:09:54.351Z,34.2
2018-12-06T01:10:44.406Z,34.2
2018-12-06T01:11:33.909Z,34.2
2018-12-06T01:12:24.488Z,34.2
2018-12-06T01:13:14.554Z,34.2
2018-12-06T01:14:04.369Z,34.1
2018-12-06T01:14:55.039Z,34.2
2018-12-06T01:15:45.614Z,34.2
2018-12-06T01:16:34.241Z,34.2
2018-12-06T01:17:24.304Z,34.1
2018-12-06T01:18:14.945Z,34.1
2018-12-06T01:19:04.144Z,34.1
2018-12-06T01:19:54.751Z,34.1
2018-12-06T01:20:44.833Z,34.1
2018-12-06T01:21:35.206Z,34.1
2018-12-06T01:22:25.281Z,34.1
2018-12-06T01:23:15.275Z,34.1
2018-12-06T01:24:05.855Z,34.1
2018-12-06T01:24:54.823Z,34.1
2018-12-06T01:25:45.029Z,34.1
2018-12-06T01:26:34.921Z,34.1
2018-12-06T01:27:25.070Z,34.1
2018-12-06T01:28:15.628Z,34.1
2018-12-06T01:29:05.665Z,34.1
2018-12-06T01:29:54.912Z,34.1
2018-12-06T01:30:45.526Z,34.1
2018-12-06T01:31:35.850Z,34.1
2018-12-06T01:32:25.630Z,34.1
2018-12-06T01:33:16.225Z,34.1
2018-12-06T01:34:06.298Z,34.1
2018-12-06T01:34:55.530Z,34.1
2018-12-06T01:35:46.412Z,34.1
2018-12-06T01:36:36.197Z,34.1
2018-12-06T01:37:26.232Z,34.1
2018-12-06T01:38:15.742Z,34
2018-12-06T01:39:06.100Z,34
2018-12-06T01:39:55.867Z,34
2018-12-06T01:40:46.244Z,34
2018-12-06T01:41:37.059Z,34
2018-12-06T01:42:27.185Z,34
2018-12-06T01:43:16.377Z,34
2018-12-06T01:44:06.719Z,34
2018-12-06T01:44:55.928Z,34
2018-12-06T01:45:47.090Z,34
2018-12-06T01:46:36.642Z,34
2018-12-06T01:47:27.057Z,34
2018-12-06T01:48:16.749Z,34
2018-12-06T01:49:06.597Z,33.9
2018-12-06T01:49:56.566Z,33.9
2018-12-06T01:50:47.194Z,34
2018-12-06T01:51:37.191Z,33.9
2018-12-06T01:52:26.448Z,33.9
2018-12-06T01:53:16.791Z,33.9
2018-12-06T01:54:07.096Z,33.9
2018-12-06T01:54:56.992Z,33.9
2018-12-06T01:55:47.233Z,33.9
2018-12-06T01:56:38.403Z,33.9
2018-12-06T01:57:27.657Z,33.9
2018-12-06T01:58:17.660Z,33.9
2018-12-06T01:59:07.710Z,33.9
2018-12-06T01:59:58.072Z,33.9
2018-12-06T02:00:47.611Z,33.9
2018-12-06T02:01:37.892Z,33.9
2018-12-06T02:02:27.417Z,33.9
2018-12-06T02:03:17.457Z,34
2018-12-06T02:04:08.085Z,34
2018-12-06T02:04:57.875Z,34
2018-12-06T02:05:48.290Z,34.1
2018-12-06T02:06:37.700Z,34.1
2018-12-06T02:07:27.765Z,34.2
2018-12-06T02:08:18.932Z,34.2
2018-12-06T02:09:08.152Z,34.3
2018-12-06T02:09:58.219Z,34.4
2018-12-06T02:10:48.014Z,34.4
2018-12-06T02:11:38.029Z,34.5
2018-12-06T02:12:28.434Z,34.6
2018-12-06T02:13:18.464Z,34.6
2018-12-06T02:14:08.239Z,34.7
2018-12-06T02:14:58.141Z,34.8
2018-12-06T02:15:48.600Z,34.9
2018-12-06T02:16:38.499Z,35
2018-12-06T02:17:27.956Z,35.1
2018-12-06T02:18:19.044Z,35.1
2018-12-06T02:19:09.206Z,35.3
2018-12-06T02:19:59.158Z,35.4
2018-12-06T02:20:48.951Z,35.4
2018-12-06T02:21:39.101Z,35.6
2018-12-06T02:22:28.756Z,35.6
2018-12-06T02:23:19.104Z,35.7
2018-12-06T02:24:09.840Z,35.8
2018-12-06T02:24:59.306Z,35.9
2018-12-06T02:25:49.586Z,36
2018-12-06T02:26:39.930Z,36.1
2018-12-06T02:27:29.501Z,36.2
2018-12-06T02:28:19.834Z,36.3
2018-12-06T02:29:09.308Z,36.4
2018-12-06T02:29:59.187Z,36.5
2018-12-06T02:30:49.671Z,36.6
2018-12-06T02:31:40.033Z,36.7
2018-12-06T02:32:30.185Z,36.8
2018-12-06T02:33:19.828Z,36.9
2018-12-06T02:34:10.798Z,37
2018-12-06T02:35:00.666Z,37.1
2018-12-06T02:35:49.484Z,37.3
2018-12-06T02:36:40.380Z,37.3
2018-12-06T02:37:30.445Z,37.4
2018-12-06T02:38:20.328Z,37.6
2018-12-06T02:39:10.379Z,37.7
2018-12-06T02:40:00.620Z,37.8
2018-12-06T02:40:50.378Z,37.9
2018-12-06T02:41:40.415Z,38
2018-12-06T02:42:30.482Z,38.1
2018-12-06T02:43:20.303Z,38.3
2018-12-06T02:44:10.342Z,38.3
2018-12-06T02:45:00.604Z,38.4
2018-12-06T02:45:50.444Z,38.6
2018-12-06T02:46:40.521Z,38.7
2018-12-06T02:47:30.954Z,38.8
2018-12-06T02:48:21.257Z,38.9
2018-12-06T02:49:11.489Z,39
2018-12-06T02:50:01.359Z,39.1
2018-12-06T02:50:50.804Z,39.2
2018-12-06T02:51:40.830Z,39.3
2018-12-06T02:52:31.244Z,39.3
2018-12-06T02:53:21.843Z,39.4
2018-12-06T02:54:11.004Z,39.4
2018-12-06T02:55:01.636Z,39.5
2018-12-06T02:55:51.379Z,39.5
2018-12-06T02:56:41.334Z,39.6
2018-12-06T02:57:31.610Z,39.6
2018-12-06T02:58:21.284Z,39.6
2018-12-06T02:59:12.184Z,39.7
2018-12-06T03:00:02.319Z,39.7
2018-12-06T03:00:52.029Z,39.7
2018-12-06T03:01:41.769Z,39.7
2018-12-06T03:02:31.836Z,39.8
2018-12-06T03:03:22.278Z,39.8
2018-12-06T03:04:12.253Z,39.8
2018-12-06T03:05:02.418Z,39.8
2018-12-06T03:05:52.389Z,39.9
2018-12-06T03:06:42.473Z,39.9
2018-12-06T03:07:32.488Z,39.9
2018-12-06T03:08:22.494Z,39.9
2018-12-06T03:09:12.564Z,39.9
2018-12-06T03:10:02.390Z,39.9
2018-12-06T03:10:52.449Z,40
2018-12-06T03:11:42.778Z,40.1
2018-12-06T03:12:32.815Z,40.1
2018-12-06T03:13:22.473Z,40.1
2018-12-06T03:14:12.645Z,40.1
2018-12-06T03:15:03.648Z,40.1
2018-12-06T03:15:52.532Z,40.1
2018-12-06T03:16:43.112Z,40.2
2018-12-06T03:17:32.891Z,40.2
2018-12-06T03:18:23.490Z,40.2
2018-12-06T03:19:13.555Z,40.3
2018-12-06T03:20:03.312Z,40.3
2018-12-06T03:20:53.118Z,40.3
2018-12-06T03:21:43.190Z,40.3
2018-12-06T03:22:33.485Z,40.3
2018-12-06T03:23:23.578Z,40.3
2018-12-06T03:24:13.383Z,40.3
2018-12-06T03:25:03.727Z,40.3
2018-12-06T03:25:53.020Z,40.4
2018-12-06T03:26:42.980Z,40.4
2018-12-06T03:27:33.873Z,40.4
2018-12-06T03:28:23.337Z,40.4
2018-12-06T03:29:13.443Z,40.4
2018-12-06T03:30:03.797Z,40.4
2018-12-06T03:30:54.273Z,40.4
2018-12-06T03:31:43.744Z,40.4
2018-12-06T03:32:34.033Z,40.4
2018-12-06T03:33:24.613Z,40.4
2018-12-06T03:34:14.298Z,40.4
2018-12-06T03:35:04.660Z,40.4
2018-12-06T03:35:54.480Z,40.4
2018-12-06T03:36:44.860Z,40.5
2018-12-06T03:37:34.367Z,40.4
2018-12-06T03:38:24.325Z,40.4
2018-12-06T03:39:14.110Z,40.4
2018-12-06T03:40:04.702Z,40.4
2018-12-06T03:40:54.482Z,40.4
2018-12-06T03:41:44.543Z,40.4
2018-12-06T03:42:34.087Z,40.4
2018-12-06T03:43:25.207Z,40.4
2018-12-06T03:44:14.467Z,40.4
2018-12-06T03:45:04.494Z,40.4
2018-12-06T03:45:55.087Z,40.4
2018-12-06T03:46:45.445Z,40.4
2018-12-06T03:47:35.048Z,40.4
2018-12-06T03:48:24.981Z,40.4
2018-12-06T03:49:15.449Z,40.4
2018-12-06T03:50:04.984Z,40.4
2018-12-06T03:50:55.500Z,40.4
2018-12-06T03:51:45.803Z,40.4
2018-12-06T03:52:35.695Z,40.4
2018-12-06T03:53:24.797Z,40.4
2018-12-06T03:54:15.956Z,40.4
2018-12-06T03:55:05.831Z,40.4
2018-12-06T03:55:55.813Z,40.4
2018-12-06T03:56:45.579Z,40.4
2018-12-06T03:57:34.558Z,40.4
2018-12-06T03:58:25.959Z,40.4
2018-12-06T03:59:16.056Z,40.4
2018-12-06T04:00:06.131Z,40.4
2018-12-06T04:00:55.876Z,40.4
2018-12-06T04:01:45.951Z,40.4
2018-12-06T04:02:36.238Z,40.4
2018-12-06T04:03:25.770Z,40.4
2018-12-06T04:04:16.408Z,40.4
2018-12-06T04:05:06.211Z,40.4
2018-12-06T04:05:56.488Z,40.4
2018-12-06T04:06:46.505Z,40.4
2018-12-06T04:07:36.415Z,40.4
2018-12-06T04:08:26.400Z,40.3
2018-12-06T04:09:17.042Z,40.3
2018-12-06T04:10:07.788Z,40.3
2018-12-06T04:10:57.170Z,40.3
2018-12-06T04:11:46.878Z,40.3
2018-12-06T04:12:36.471Z,40.3
2018-12-06T04:13:27.115Z,40.3
2018-12-06T04:14:16.558Z,40.3
2018-12-06T04:15:06.893Z,40.3
2018-12-06T04:15:57.215Z,40.3
2018-12-06T04:16:47.205Z,40.3
2018-12-06T04:17:37.810Z,40.3
2018-12-06T04:18:27.079Z,40.3
2018-12-06T04:19:17.408Z,40.3
2018-12-06T04:20:07.232Z,40.3
2018-12-06T04:20:57.740Z,40.3
2018-12-06T04:21:47.023Z,40.3
2018-12-06T04:22:37.638Z,40.3
2018-12-06T04:23:27.532Z,40.3
2018-12-06T04:24:17.546Z,40.3
2018-12-06T04:25:07.535Z,40.3
2018-12-06T04:25:57.905Z,40.3
2018-12-06T04:26:47.610Z,40.2
2018-12-06T04:27:37.685Z,40.2
2018-12-06T04:28:27.483Z,40.2
2018-12-06T04:29:18.065Z,40.2
2018-12-06T04:30:07.730Z,40.2
2018-12-06T04:30:58.759Z,40.2
2018-12-06T04:31:48.255Z,40.2
2018-12-06T04:32:38.602Z,40.2
2018-12-06T04:33:28.379Z,40.2
2018-12-06T04:34:18.223Z,40.2
2018-12-06T04:35:08.237Z,40.2
2018-12-06T04:35:58.582Z,40.2
2018-12-06T04:36:48.394Z,40.2
2018-12-06T04:54:06.739Z,40.1
2018-12-06T04:54:56.036Z,40.1
2018-12-06T04:55:46.609Z,40.1
2018-12-06T04:56:36.451Z,40.1
2018-12-06T04:57:26.961Z,40.1
2018-12-06T04:58:17.006Z,40
2018-12-06T04:59:07.129Z,40
2018-12-06T04:59:56.862Z,40
2018-12-06T05:00:47.214Z,40
2018-12-06T05:01:36.666Z,40
2018-12-06T05:02:27.278Z,40
2018-12-06T05:03:16.591Z,40
2018-12-06T05:04:07.345Z,40
2018-12-06T05:04:56.870Z,40
2018-12-06T05:05:46.378Z,40
2018-12-06T05:06:37.547Z,40
2018-12-06T05:07:27.333Z,40
2018-12-06T05:08:16.838Z,39.9
2018-12-06T05:09:07.718Z,39.9
2018-12-06T05:09:58.022Z,39.9
2018-12-06T05:10:47.337Z,39.9
2018-12-06T05:11:37.343Z,39.9
2018-12-06T05:12:26.283Z,39.9
2018-12-06T05:13:18.223Z,39.9
2018-12-06T05:14:08.332Z,39.9
2018-12-06T05:14:58.438Z,39.9
2018-12-06T05:15:47.647Z,39.9
2018-12-06T05:16:37.958Z,39.9
2018-12-06T05:17:27.172Z,39.9
2018-12-06T05:18:17.789Z,39.9
2018-12-06T05:19:08.384Z,39.9
2018-12-06T05:19:58.392Z,39.9
2018-12-06T05:20:48.257Z,39.9
2018-12-06T05:21:37.762Z,39.9
2018-12-06T05:22:28.105Z,39.9
2018-12-06T05:23:18.146Z,39.9
2018-12-06T05:24:07.634Z,39.9
2018-12-06T05:24:58.832Z,39.9
2018-12-06T05:25:47.749Z,39.9
2018-12-06T05:26:38.634Z,39.9
2018-12-06T05:27:29.032Z,39.8
2018-12-06T05:28:17.917Z,39.9
2018-12-06T05:29:08.531Z,39.8
2018-12-06T05:29:59.661Z,39.8
2018-12-06T05:30:49.169Z,39.8
2018-12-06T05:31:38.446Z,39.8
2018-12-06T05:32:29.383Z,39.8
2018-12-06T05:33:18.264Z,39.8
2018-12-06T05:34:08.881Z,39.8
2018-12-06T05:34:59.531Z,39.8
2018-12-06T05:35:49.538Z,39.8
2018-12-06T05:36:38.814Z,39.8
2018-12-06T05:37:28.848Z,39.8
2018-12-06T05:38:19.168Z,39.8
2018-12-06T05:39:09.515Z,39.8
2018-12-06T05:39:59.567Z,39.8
2018-12-06T05:40:49.908Z,39.8
2018-12-06T05:41:39.696Z,39.8
2018-12-06T05:42:29.249Z,39.8
2018-12-06T05:43:19.803Z,39.8
2018-12-06T05:44:09.279Z,39.8
2018-12-06T05:45:00.215Z,39.8
2018-12-06T05:45:50.250Z,39.8
2018-12-06T05:46:40.008Z,39.8
2018-12-06T05:47:29.667Z,39.8
2018-12-06T05:48:19.420Z,39.8
2018-12-06T05:49:09.980Z,39.8
2018-12-06T05:49:59.485Z,39.7
2018-12-06T05:50:50.240Z,39.7
2018-12-06T05:51:40.350Z,39.7
2018-12-06T05:52:30.490Z,39.7
2018-12-06T05:53:19.909Z,39.7
2018-12-06T05:54:10.516Z,39.7
2018-12-06T05:55:00.624Z,39.7
2018-12-06T05:55:50.411Z,39.7
2018-12-06T05:56:41.092Z,39.7
2018-12-06T05:57:29.704Z,39.7
2018-12-06T05:58:19.563Z,39.6
2018-12-06T05:59:10.399Z,39.6
2018-12-06T06:00:00.699Z,39.6
2018-12-06T06:00:51.299Z,39.6
2018-12-06T06:01:40.316Z,39.6
2018-12-06T06:02:31.064Z,39.6
2018-12-06T06:03:20.891Z,39.6
2018-12-06T06:04:11.583Z,39.6
2018-12-06T06:05:01.559Z,39.6
2018-12-06T06:05:51.636Z,39.6
2018-12-06T06:06:41.368Z,39.6
2018-12-06T06:07:30.968Z,39.6
2018-12-06T06:08:20.931Z,39.6
2018-12-06T06:09:11.577Z,39.6
2018-12-06T06:10:01.693Z,39.6
2018-12-06T06:10:51.416Z,39.6
2018-12-06T06:11:41.750Z,39.6
2018-12-06T06:12:32.025Z,39.6
2018-12-06T06:13:21.898Z,39.6
2018-12-06T06:14:11.968Z,39.6
2018-12-06T06:15:01.679Z,39.6
2018-12-06T06:15:51.145Z,39.6
2018-12-06T06:16:42.022Z,39.6
2018-12-06T06:17:32.150Z,39.6
2018-12-06T06:18:22.013Z,39.6
2018-12-06T06:19:11.939Z,39.5
2018-12-06T06:20:02.005Z,39.5
2018-12-06T06:20:52.128Z,39.5
2018-12-06T06:21:42.665Z,39.5
2018-12-06T06:22:32.499Z,39.5
2018-12-06T06:23:22.860Z,39.5
2018-12-06T06:24:12.825Z,39.5
2018-12-06T06:25:03.053Z,39.5
2018-12-06T06:25:52.187Z,39.4
2018-12-06T06:26:42.557Z,39.4
2018-12-06T06:27:32.620Z,39.4
2018-12-06T06:28:23.153Z,39.4
2018-12-06T06:29:12.724Z,39.4
2018-12-06T06:30:02.422Z,39.4
2018-12-06T06:30:52.556Z,39.4
2018-12-06T06:31:41.489Z,39.4
2018-12-06T06:32:32.429Z,39.4
2018-12-06T06:33:23.834Z,39.4
2018-12-06T06:34:12.962Z,39.4
2018-12-06T06:35:03.385Z,39.4
2018-12-06T06:35:53.658Z,39.4
2018-12-06T06:36:42.601Z,39.4
2018-12-06T06:37:33.164Z,39.4
2018-12-06T06:38:22.696Z,39.4
2018-12-06T06:39:15.325Z,39.4
2018-12-06T06:40:02.907Z,39.4
2018-12-06T06:40:53.149Z,39.4
2018-12-06T06:41:43.273Z,39.5
2018-12-06T06:42:33.286Z,39.5
2018-12-06T06:43:23.318Z,39.5
2018-12-06T06:44:13.920Z,39.5
2018-12-06T06:45:03.463Z,39.5
2018-12-06T06:45:54.123Z,39.5
2018-12-06T06:46:43.911Z,39.5
2018-12-06T06:47:35.018Z,39.6
2018-12-06T06:48:23.943Z,39.6
2018-12-06T06:49:19.984Z,39.6
2018-12-06T06:50:04.064Z,39.6
2018-12-06T06:50:54.668Z,39.6
2018-12-06T06:51:44.711Z,39.6
2018-12-06T06:52:35.015Z,39.6
2018-12-06T06:53:23.435Z,39.6
2018-12-06T06:54:13.548Z,39.6
2018-12-06T06:55:04.661Z,39.6
2018-12-06T06:55:55.005Z,39.6
2018-12-06T06:56:44.485Z,39.6
2018-12-06T06:57:33.798Z,39.6
2018-12-06T06:58:24.933Z,39.5
2018-12-06T06:59:14.133Z,39.6
2018-12-06T07:00:05.290Z,39.6
2018-12-06T07:00:55.062Z,39.6
2018-12-06T07:01:45.385Z,39.6
2018-12-06T07:02:34.978Z,39.6
2018-12-06T07:03:25.302Z,39.5
2018-12-06T07:04:15.277Z,39.5
2018-12-06T07:05:05.327Z,39.5
2018-12-06T07:05:54.850Z,39.5
2018-12-06T07:06:44.899Z,39.5
2018-12-06T07:07:35.215Z,39.5
2018-12-06T07:08:26.092Z,39.5
2018-12-06T07:09:16.157Z,39.5
2018-12-06T07:10:05.125Z,39.5
2018-12-06T07:10:55.832Z,39.5
2018-12-06T07:11:45.809Z,39.4
2018-12-06T07:12:35.328Z,39.4
2018-12-06T07:13:26.232Z,39.5
2018-12-06T07:14:15.429Z,39.4
2018-12-06T07:15:06.026Z,39.4
2018-12-06T07:15:55.797Z,39.4
2018-12-06T07:16:45.877Z,39.4
2018-12-06T07:17:36.487Z,39.4
2018-12-06T07:18:25.987Z,39.4
2018-12-06T07:19:16.018Z,39.4
2018-12-06T07:20:06.064Z,39.4
2018-12-06T07:20:56.409Z,39.4
2018-12-06T07:21:46.479Z,39.4
2018-12-06T07:22:36.241Z,39.4
2018-12-06T07:23:27.214Z,39.4
2018-12-06T07:24:16.951Z,39.4
2018-12-06T07:25:06.737Z,39.4
2018-12-06T07:25:57.036Z,39.4
2018-12-06T07:26:48.984Z,39.4
2018-12-06T07:27:36.948Z,39.4
2018-12-06T07:28:27.193Z,39.4
2018-12-06T07:29:16.681Z,39.4
2018-12-06T07:30:14.036Z,39.4
2018-12-06T07:30:56.911Z,39.3
2018-12-06T07:31:47.426Z,39.3
2018-12-06T07:32:36.723Z,39.3
2018-12-06T07:33:27.331Z,39.3
2018-12-06T07:34:17.328Z,39.3
2018-12-06T07:35:07.141Z,39.3
2018-12-06T07:35:57.741Z,39.3
2018-12-06T07:36:47.271Z,39.3
2018-12-06T07:37:36.786Z,39.3
2018-12-06T07:38:27.907Z,39.3
2018-12-06T07:39:17.881Z,39.3
2018-12-06T07:40:07.476Z,39.3
2018-12-06T07:40:57.783Z,39.3
2018-12-06T07:41:47.318Z,39.3
2018-12-06T07:42:37.629Z,39.3
2018-12-06T07:43:29.485Z,39.3
2018-12-06T07:44:18.617Z,39.3
2018-12-06T07:45:08.357Z,39.3
2018-12-06T07:45:58.137Z,39.3
2018-12-06T07:46:47.637Z,39.2
2018-12-06T07:47:37.989Z,39.2
2018-12-06T07:48:28.299Z,39.2
2018-12-06T07:49:18.624Z,39.2
2018-12-06T07:50:08.167Z,39.2
2018-12-06T07:50:58.584Z,39.2
2018-12-06T07:51:48.078Z,39.2
2018-12-06T07:52:37.816Z,39.2
2018-12-06T07:53:28.162Z,39.2
2018-12-06T07:54:19.747Z,39.2
2018-12-06T07:55:08.552Z,39.2
2018-12-06T07:55:58.361Z,39.1
2018-12-06T07:56:48.127Z,39.2
2018-12-06T07:57:38.443Z,39.1
2018-12-06T07:58:28.517Z,39.1
2018-12-06T07:59:19.670Z,39.1
2018-12-06T08:00:08.892Z,39.1
2018-12-06T08:00:58.633Z,39.1
2018-12-06T08:01:49.226Z,39.1
2018-12-06T08:02:39.296Z,39.1
2018-12-06T08:03:28.846Z,39.1
2018-12-06T08:04:19.932Z,39.1
2018-12-06T08:05:08.989Z,39.1
2018-12-06T08:05:59.536Z,39.1
2018-12-06T08:06:49.579Z,39.1
2018-12-06T08:07:39.096Z,39.1
2018-12-06T08:08:29.498Z,39.1
2018-12-06T08:09:20.024Z,39.1
2018-12-06T08:10:09.522Z,31.1
2018-12-06T08:10:59.673Z,25.3
2018-12-06T08:11:50.161Z,41.3
2018-12-06T08:12:39.983Z,49.4
2018-12-06T08:13:30.306Z,51.1
2018-12-06T08:14:20.381Z,51.2
2018-12-06T08:15:10.160Z,50.9
2018-12-06T08:15:59.458Z,50.4
2018-12-06T08:16:49.975Z,49.9
2018-12-06T08:17:40.335Z,49.4
2018-12-06T08:18:30.674Z,48.9
2018-12-06T08:19:20.453Z,48.5
2018-12-06T08:20:10.754Z,48.1
2018-12-06T08:21:00.299Z,47.8
2018-12-06T08:21:51.135Z,47.4
2018-12-06T08:22:40.670Z,47.1
2018-12-06T08:23:31.007Z,46.8
2018-12-06T08:24:20.500Z,46.6
2018-12-06T08:25:10.648Z,46.3
2018-12-06T08:26:01.185Z,46.1
2018-12-06T08:26:50.675Z,45.8
2018-12-06T08:27:40.742Z,45.6
2018-12-06T08:28:30.242Z,44.9
2018-12-06T08:29:21.149Z,41.6
2018-12-06T08:30:11.406Z,51.6
2018-12-06T08:31:01.512Z,56.8
2018-12-06T08:31:49.999Z,57
2018-12-06T08:32:41.459Z,53.9
2018-12-06T08:33:30.587Z,51.8
2018-12-06T08:34:21.489Z,50.6
2018-12-06T08:35:11.844Z,49.8
2018-12-06T08:36:01.099Z,49.1
2018-12-06T08:36:51.174Z,48.6
2018-12-06T08:37:42.042Z,48.1
2018-12-06T08:38:31.786Z,47.6
2018-12-06T08:39:20.154Z,47.3
2018-12-06T08:40:11.664Z,46.9
2018-12-06T08:41:00.939Z,46.6
2018-12-06T08:41:51.709Z,46.4
2018-12-06T08:42:50.019Z,46.1
2018-12-06T08:43:33.307Z,45.8
2018-12-06T08:44:27.111Z,45.6
2018-12-06T08:45:12.539Z,45.4
2018-12-06T08:46:01.721Z,45.2
2018-12-06T08:46:51.748Z,45
2018-12-06T08:47:42.401Z,44.8
2018-12-06T08:48:32.161Z,44.6
2018-12-06T08:49:22.516Z,44.4
2018-12-06T08:50:13.096Z,44.3
2018-12-06T08:51:02.589Z,44.1
2018-12-06T08:51:52.928Z,43.9
2018-12-06T08:52:42.975Z,43.8
2018-12-06T09:08:30.402Z,42
2018-12-06T09:09:20.216Z,41.9
2018-12-06T09:10:09.982Z,41.9
2018-12-06T09:11:00.018Z,41.8
2018-12-06T09:11:50.627Z,41.8
2018-12-06T09:12:41.169Z,41.7
2018-12-06T09:13:30.419Z,41.7
2018-12-06T09:14:21.012Z,41.6
2018-12-06T09:15:10.774Z,41.6
2018-12-06T09:16:00.852Z,40.1
2018-12-06T09:16:51.194Z,38
2018-12-06T09:17:41.314Z,46.9
2018-12-06T09:18:31.889Z,50.7
2018-12-06T09:19:19.989Z,50.5
2018-12-06T09:20:10.599Z,49.6
2018-12-06T09:21:01.739Z,48.8
2018-12-06T09:21:50.674Z,48.2
2018-12-06T09:22:41.384Z,47.6
2018-12-06T09:23:31.103Z,47.1
2018-12-06T09:24:21.191Z,46.6
2018-12-06T09:25:11.756Z,46.3
2018-12-06T09:26:02.083Z,45.9
2018-12-06T09:26:59.218Z,45.6
2018-12-06T09:27:42.056Z,45.3
2018-12-06T09:28:32.490Z,45.1
2018-12-06T09:29:22.326Z,44.8
2018-12-06T09:30:12.061Z,44.6
2018-12-06T09:31:06.863Z,44.4
2018-12-06T09:31:51.916Z,44.2
2018-12-06T09:32:41.144Z,43.8
2018-12-06T09:33:31.711Z,42.9
2018-12-06T09:34:23.148Z,53.3
2018-12-06T09:35:11.993Z,58.8
2018-12-06T09:36:01.735Z,59.8
2018-12-06T09:36:51.988Z,57.9
2018-12-06T09:37:42.913Z,55.9
2018-12-06T09:38:32.694Z,55.2
2018-12-06T09:39:21.653Z,55.3
2018-12-06T09:40:12.489Z,56
2018-12-06T09:41:02.542Z,57
2018-12-06T09:41:52.612Z,57.9
2018-12-06T09:42:42.949Z,58.4
2018-12-06T09:46:02.902Z,58.7
2018-12-06T09:46:52.680Z,58.8
2018-12-06T09:47:43.557Z,59
2018-12-06T09:48:33.342Z,59.2
2018-12-06T09:49:23.462Z,59.4
2018-12-06T09:50:12.644Z,59.6
2018-12-06T09:51:05.098Z,59.8
2018-12-06T09:51:53.846Z,59.8
2018-12-06T09:52:43.652Z,59.8
2018-12-06T09:53:33.144Z,59.9
2018-12-06T09:54:23.599Z,59.9
2018-12-06T09:55:14.059Z,59.9
2018-12-06T09:56:03.849Z,60
2018-12-06T09:56:53.636Z,60.2
2018-12-06T09:57:43.147Z,60.3
2018-12-06T09:58:34.042Z,60.4
2018-12-06T09:59:24.157Z,60.5
2018-12-06T10:00:14.270Z,60.6
2018-12-06T10:01:04.012Z,60.7
2018-12-06T10:01:53.971Z,60.8
2018-12-06T10:02:44.038Z,60.9
2018-12-06T10:03:33.912Z,61
2018-12-06T10:04:24.244Z,61.1
2018-12-06T10:05:14.744Z,61.3
2018-12-06T10:06:04.011Z,61.4
2018-12-06T10:06:54.341Z,61.5
2018-12-06T10:07:44.133Z,61.6
2018-12-06T10:08:34.708Z,61.6
2018-12-06T10:09:24.651Z,61.7
2018-12-06T10:10:14.848Z,61.8
2018-12-06T10:11:05.251Z,61.9
2018-12-06T10:11:54.111Z,62.1
2018-12-06T10:12:43.154Z,62.2
2018-12-06T10:13:34.526Z,62.3
2018-12-06T10:14:25.801Z,62.4
2018-12-06T10:15:14.971Z,62.4
2018-12-06T10:16:04.933Z,62.5
2018-12-06T10:16:55.031Z,62.6
2018-12-06T10:17:44.789Z,62.7
2018-12-06T10:18:35.510Z,62.8
2018-12-06T10:19:25.763Z,62.8
2018-12-06T10:20:15.561Z,62.8
2018-12-06T10:21:05.390Z,62.8
2018-12-06T10:21:55.068Z,62.8
2018-12-06T10:22:45.418Z,62.8
2018-12-06T10:23:34.730Z,62.8
2018-12-06T10:24:25.555Z,62.8
2018-12-06T10:25:15.908Z,62.8
2018-12-06T10:26:05.958Z,62.9
2018-12-06T10:26:56.009Z,62.9
2018-12-06T10:27:45.760Z,62.9
2018-12-06T10:28:36.097Z,62.9
2018-12-06T10:29:25.957Z,62.9
2018-12-06T10:30:16.002Z,62.9
2018-12-06T10:31:06.371Z,62.9
2018-12-06T10:31:55.777Z,63
2018-12-06T10:32:46.100Z,63
2018-12-06T10:33:35.897Z,63.1
2018-12-06T10:34:26.232Z,63.1
2018-12-06T10:35:17.212Z,63.1
2018-12-06T10:36:06.634Z,63.2
2018-12-06T10:36:56.447Z,63.3
2018-12-06T10:37:45.959Z,63.3
2018-12-06T10:38:36.589Z,63.3
2018-12-06T10:39:26.484Z,63.4
2018-12-06T10:40:16.874Z,63.4
2018-12-06T10:41:06.689Z,63.5
2018-12-06T10:41:57.282Z,63.6
2018-12-06T10:42:46.805Z,63.6
2018-12-06T10:43:36.865Z,63.7
2018-12-06T10:44:26.627Z,63.8
2018-12-06T10:45:17.581Z,63.8
2018-12-06T10:46:07.593Z,63.8
2018-12-06T10:46:57.322Z,63.9
2018-12-06T10:47:47.149Z,63.9
2018-12-06T10:48:37.206Z,63.9
2018-12-06T10:49:27.068Z,64
2018-12-06T10:50:17.301Z,64
2018-12-06T10:51:09.129Z,64
2018-12-06T10:51:57.132Z,64
2018-12-06T10:52:46.949Z,64
2018-12-06T10:53:37.271Z,64
2018-12-06T10:54:27.426Z,64
2018-12-06T10:55:17.526Z,64
2018-12-06T10:56:08.751Z,64
2018-12-06T10:56:58.210Z,64.1
2018-12-06T10:57:47.836Z,64.1
2018-12-06T10:58:37.335Z,64.1
2018-12-06T10:59:28.531Z,64.2
2018-12-06T11:00:18.555Z,64.2
2018-12-06T11:01:08.299Z,64.3
2018-12-06T11:01:59.189Z,64.2
2018-12-06T11:02:48.191Z,64.3
2018-12-06T11:03:38.804Z,64.3
2018-12-06T11:04:28.069Z,64.2
2018-12-06T11:05:18.653Z,64.3
2018-12-06T11:06:08.666Z,64.3
2018-12-06T11:06:58.531Z,64.4
2018-12-06T11:07:48.520Z,64.4
2018-12-06T11:08:38.606Z,64.5
2018-12-06T11:09:28.643Z,64.6
2018-12-06T11:10:19.023Z,64.6
2018-12-06T11:11:09.365Z,64.6
2018-12-06T11:11:58.771Z,64.6
2018-12-06T11:12:49.425Z,64.7
2018-12-06T11:13:39.191Z,64.7
2018-12-06T11:14:29.550Z,64.6
2018-12-06T11:15:19.037Z,64.6
2018-12-06T11:16:09.897Z,64.6
2018-12-06T11:16:58.578Z,64.6
2018-12-06T11:17:49.182Z,64.6
2018-12-06T11:18:38.800Z,64.6
2018-12-06T11:19:29.324Z,64.6
2018-12-06T11:20:19.115Z,64.6
2018-12-06T11:21:10.245Z,64.7
2018-12-06T11:21:59.227Z,64.6
2018-12-06T11:22:50.372Z,64.6
2018-12-06T11:23:39.622Z,64.6
2018-12-06T11:24:29.492Z,64.7
2018-12-06T11:25:19.460Z,64.7
2018-12-06T11:26:09.787Z,64.8
2018-12-06T11:27:00.207Z,64.8
2018-12-06T11:27:50.805Z,64.8
2018-12-06T11:28:39.480Z,64.8
2018-12-06T11:29:30.022Z,64.8
2018-12-06T11:30:20.094Z,64.8
2018-12-06T11:31:10.499Z,64.8
2018-12-06T11:32:00.834Z,64.8
2018-12-06T11:32:50.864Z,64.8
2018-12-06T11:33:40.392Z,64.8
2018-12-06T11:34:30.909Z,64.8
2018-12-06T11:35:20.751Z,64.7
2018-12-06T11:36:09.647Z,64.7
2018-12-06T11:37:00.259Z,64.7
2018-12-06T11:37:51.214Z,64.6
2018-12-06T11:38:41.304Z,64.6
2018-12-06T11:39:30.724Z,64.6
2018-12-06T11:40:21.081Z,64.6
2018-12-06T11:41:11.123Z,64.6
2018-12-06T11:42:00.963Z,64.6
2018-12-06T11:42:51.477Z,64.5
2018-12-06T11:43:40.776Z,64.5
2018-12-06T11:44:30.786Z,64.5
2018-12-06T11:45:21.402Z,64.5
2018-12-06T11:46:11.434Z,64.4
2018-12-06T11:47:01.002Z,64.4
2018-12-06T11:47:51.576Z,64.4
2018-12-06T11:48:41.323Z,64.4
2018-12-06T11:49:30.867Z,64.4
2018-12-06T11:50:21.453Z,64.4
2018-12-06T11:51:12.065Z,64.4
2018-12-06T11:52:01.630Z,64.4
2018-12-06T11:52:51.108Z,64.4
2018-12-06T11:53:41.143Z,64.4
2018-12-06T11:54:32.034Z,64.4
2018-12-06T11:55:22.691Z,64.4
2018-12-06T11:56:12.175Z,64.4
2018-12-06T11:57:02.196Z,64.4
2018-12-06T11:57:52.655Z,64.5
2018-12-06T11:58:41.825Z,64.4
2018-12-06T11:59:31.923Z,64.4
2018-12-06T12:00:22.340Z,64.4
2018-12-06T12:01:12.213Z,64.4
2018-12-06T12:02:10.378Z,64.3
2018-12-06T12:02:52.055Z,64.3
2018-12-06T12:03:43.485Z,64.3
2018-12-06T12:04:32.747Z,64.3
2018-12-06T12:05:23.048Z,64.2
2018-12-06T12:06:12.560Z,64.2
2018-12-06T12:07:03.313Z,64.2
2018-12-06T12:07:52.707Z,64.1